Time;durP1;ratioP1;P1;durP2;ratioP2;P2;SDS_P1;SDS_P2;PMS_P1;PMS_P2;Temp;Humidity;BMP_temperature;BMP_pressure;BME280_temperature;BME280_humidity;BME280_pressure;Samples;Min_cycle;Max_cycle;Signal;HPM_P1;HPM_P2
2022/09/10 00:01:41;;;;;;;20.10;17.23;;;29.80;29.40;;;;;;5103255;28;21595;-67
2022/09/10 00:04:14;;;;;;;23.73;18.30;;;29.80;29.70;;;;;;5100981;28;20522;-66
2022/09/10 00:06:45;;;;;;;17.73;15.90;;;29.70;28.70;;;;;;5102478;28;20488;-67
2022/09/10 00:09:16;;;;;;;16.70;14.90;;;29.70;29.70;;;;;;5101475;28;20782;-66
2022/09/10 00:11:47;;;;;;;18.27;15.60;;;29.70;29.70;;;;;;5099345;28;20465;-64
2022/09/10 00:14:23;;;;;;;16.03;14.30;;;29.70;29.30;;;;;;5123507;28;20441;-65
2022/09/10 00:16:56;;;;;;;16.30;14.70;;;29.70;28.60;;;;;;5092103;28;20505;-65
2022/09/10 00:19:29;;;;;;;17.80;14.10;;;29.60;29.90;;;;;;5110603;28;20466;-65
2022/09/10 00:21:59;;;;;;;14.30;12.80;;;29.60;29.00;;;;;;5109029;27;20466;-65
2022/09/10 00:24:32;;;;;;;14.53;11.97;;;29.50;28.10;;;;;;5110253;28;20466;-66
2022/09/10 00:27:03;;;;;;;12.53;11.10;;;29.60;27.90;;;;;;5101470;28;20469;-66
2022/09/10 00:29:34;;;;;;;12.57;10.70;;;29.70;28.60;;;;;;5106036;28;20479;-68
2022/09/10 00:32:07;;;;;;;11.17;9.83;;;29.70;28.60;;;;;;5100883;28;20470;-66
2022/09/10 00:34:37;;;;;;;9.90;8.87;;;29.70;28.10;;;;;;5114061;28;20507;-66
2022/09/10 00:37:08;;;;;;;10.07;8.13;;;29.70;28.90;;;;;;5102032;28;20507;-66
2022/09/10 00:39:39;;;;;;;7.33;6.60;;;29.60;27.50;;;;;;5108294;28;20449;-66
2022/09/10 00:42:13;;;;;;;7.43;6.53;;;29.50;27.40;;;;;;5103785;28;20467;-67
2022/09/10 00:45:01;;;;;;;6.43;5.83;;;29.40;28.20;;;;;;5101003;28;20515;-66
2022/09/10 00:47:36;;;;;;;5.80;5.20;;;29.30;28.30;;;;;;5103991;28;20442;-66
2022/09/10 00:50:16;;;;;;;6.10;5.13;;;29.20;28.00;;;;;;5112727;28;20448;-66
2022/09/10 00:52:47;;;;;;;5.87;4.90;;;29.20;28.30;;;;;;5103116;28;20491;-66
2022/09/10 00:55:19;;;;;;;5.13;4.63;;;29.10;29.20;;;;;;5103551;28;20450;-66
2022/09/10 00:57:53;;;;;;;5.03;4.37;;;29.30;28.60;;;;;;5102888;28;20482;-66
2022/09/10 01:00:24;;;;;;;5.50;5.00;;;29.30;28.40;;;;;;5118111;28;20448;-65
2022/09/10 01:02:57;;;;;;;4.33;3.90;;;29.30;29.20;;;;;;5123807;28;20497;-67
2022/09/10 01:05:28;;;;;;;4.47;3.83;;;29.30;28.60;;;;;;5104223;28;20541;-68
2022/09/10 01:07:59;;;;;;;6.40;4.00;;;29.20;29.20;;;;;;5118818;28;20516;-68
2022/09/10 01:10:36;;;;;;;3.47;3.20;;;29.10;29.60;;;;;;5118711;28;20463;-65
2022/09/10 01:13:22;;;;;;;3.90;3.00;;;29.20;29.00;;;;;;5103301;28;20460;-67
2022/09/10 01:16:01;;;;;;;4.80;2.97;;;29.20;29.00;;;;;;5094440;28;20477;-67
2022/09/10 01:18:43;;;;;;;3.43;3.13;;;29.10;29.10;;;;;;5123468;28;20514;-67
2022/09/10 01:21:24;;;;;;;2.50;2.30;;;29.20;28.90;;;;;;5104342;28;20494;-66
2022/09/10 01:24:24;;;;;;;2.70;2.50;;;29.00;28.70;;;;;;5109036;28;20442;-66
2022/09/10 01:27:27;;;;;;;2.90;2.60;;;28.80;30.20;;;;;;5123459;28;20537;-66
2022/09/10 01:30:04;;;;;;;2.40;2.20;;;28.50;30.50;;;;;;5096105;28;20503;-66
2022/09/10 01:32:45;;;;;;;2.43;2.20;;;28.40;30.00;;;;;;5110343;28;20456;-67
2022/09/10 01:35:18;;;;;;;2.40;2.17;;;28.20;30.00;;;;;;5102945;28;20542;-66
2022/09/10 01:37:53;;;;;;;3.13;2.40;;;28.10;30.40;;;;;;5093025;28;20503;-67
2022/09/10 01:40:28;;;;;;;2.63;2.43;;;28.10;30.30;;;;;;5115377;28;20510;-66
2022/09/10 01:43:01;;;;;;;3.10;2.47;;;28.40;29.40;;;;;;5107825;28;20985;-67
2022/09/10 01:45:39;;;;;;;2.27;2.07;;;28.30;29.40;;;;;;5103442;28;20448;-67
2022/09/10 01:48:35;;;;;;;3.37;2.73;;;28.10;29.40;;;;;;5112635;28;20473;-66
2022/09/10 01:51:14;;;;;;;2.60;2.13;;;28.00;30.70;;;;;;5107080;28;20470;-67
2022/09/10 01:53:59;;;;;;;2.50;2.00;;;27.70;30.00;;;;;;5123162;28;20452;-66
2022/09/10 01:56:41;;;;;;;2.40;1.87;;;27.60;30.70;;;;;;5123102;28;20455;-66
2022/09/10 01:59:24;;;;;;;1.80;1.50;;;27.40;30.60;;;;;;5105796;28;20851;-65
2022/09/10 02:02:08;;;;;;;3.30;1.80;;;27.40;29.20;;;;;;5123191;28;20479;-67
2022/09/10 02:04:40;;;;;;;2.33;1.97;;;27.40;29.30;;;;;;5109439;28;21012;-67
2022/09/10 02:07:14;;;;;;;4.70;1.80;;;27.20;31.80;;;;;;5103406;28;20442;-68
2022/09/10 02:09:46;;;;;;;3.00;2.20;;;27.10;30.60;;;;;;5120155;28;20538;-68
2022/09/10 02:12:20;;;;;;;2.30;2.10;;;26.90;30.60;;;;;;5107820;28;20446;-67
2022/09/10 02:14:52;;;;;;;2.23;1.77;;;26.90;30.00;;;;;;5101632;28;20506;-67
2022/09/10 02:17:30;;;;;;;1.60;1.50;;;26.80;30.50;;;;;;5093696;28;20505;-68
2022/09/10 02:20:02;;;;;;;1.60;1.50;;;26.70;30.00;;;;;;5117806;27;20508;-69
2022/09/10 02:22:36;;;;;;;1.70;1.60;;;26.60;31.60;;;;;;5107032;28;20452;-69
2022/09/10 02:25:08;;;;;;;2.07;1.87;;;26.40;32.50;;;;;;5105696;28;20470;-70
2022/09/10 02:27:39;;;;;;;1.83;1.43;;;26.30;32.00;;;;;;5121162;28;20449;-70
2022/09/10 02:30:11;;;;;;;4.40;2.43;;;26.30;31.00;;;;;;5104082;28;20489;-69
2022/09/10 02:32:44;;;;;;;2.00;1.90;;;26.20;31.90;;;;;;5103050;28;20449;-69
2022/09/10 02:35:15;;;;;;;2.33;2.13;;;26.10;31.10;;;;;;5101492;28;20448;-69
2022/09/10 02:37:46;;;;;;;3.70;2.60;;;26.00;32.80;;;;;;5085467;28;20484;-70
2022/09/10 02:40:18;;;;;;;1.47;1.37;;;25.80;32.20;;;;;;5094525;28;20456;-69
2022/09/10 02:42:49;;;;;;;2.03;1.70;;;25.80;32.10;;;;;;5110753;28;20455;-69
2022/09/10 02:45:19;;;;;;;1.50;1.40;;;25.70;31.90;;;;;;5103935;28;20565;-70
2022/09/10 02:47:52;;;;;;;4.10;1.40;;;25.60;32.40;;;;;;5097299;28;20453;-70
2022/09/10 02:50:23;;;;;;;3.27;1.57;;;25.60;32.70;;;;;;5100276;28;20900;-68
2022/09/10 02:52:54;;;;;;;2.73;1.70;;;25.50;32.40;;;;;;5105652;28;21049;-69
2022/09/10 02:55:25;;;;;;;1.57;1.37;;;25.50;32.30;;;;;;5106610;28;21159;-69
2022/09/10 02:57:55;;;;;;;1.83;1.63;;;25.40;32.60;;;;;;5106160;28;20447;-69
2022/09/10 03:00:26;;;;;;;1.50;1.30;;;25.40;32.70;;;;;;5104728;28;20489;-69
2022/09/10 03:02:59;;;;;;;1.77;1.50;;;25.40;32.40;;;;;;5122498;28;20442;-69
2022/09/10 03:05:32;;;;;;;1.50;1.40;;;25.50;32.30;;;;;;5090730;28;20473;-69
2022/09/10 03:08:04;;;;;;;1.30;1.20;;;25.60;32.20;;;;;;5113821;28;20455;-69
2022/09/10 03:10:35;;;;;;;1.70;1.60;;;25.50;32.60;;;;;;5116641;28;20494;-68
2022/09/10 03:13:05;;;;;;;1.83;1.50;;;25.50;32.20;;;;;;5125163;28;20479;-68
2022/09/10 03:15:37;;;;;;;1.53;1.43;;;25.50;31.80;;;;;;5120687;28;20454;-69
2022/09/10 03:18:09;;;;;;;1.97;1.53;;;25.40;33.10;;;;;;5125664;28;21820;-69
2022/09/10 03:20:40;;;;;;;1.50;1.40;;;25.40;32.20;;;;;;5106808;28;20451;-69
2022/09/10 03:23:11;;;;;;;6.50;1.60;;;25.40;32.70;;;;;;5105751;28;20455;-68
2022/09/10 03:25:42;;;;;;;1.70;1.37;;;25.40;33.00;;;;;;5105046;28;20477;-69
2022/09/10 03:28:18;;;;;;;1.43;1.30;;;25.30;33.60;;;;;;5104490;28;20950;-68
2022/09/10 03:30:49;;;;;;;3.03;1.47;;;25.40;33.60;;;;;;5099862;28;20488;-68
2022/09/10 03:33:21;;;;;;;1.90;1.70;;;25.30;34.20;;;;;;5107761;28;20444;-69
2022/09/10 03:35:54;;;;;;;1.33;1.20;;;25.30;33.60;;;;;;5107000;28;20436;-68
2022/09/10 03:38:26;;;;;;;1.50;1.40;;;25.30;34.10;;;;;;5101647;28;20449;-68
2022/09/10 03:40:57;;;;;;;2.07;1.73;;;25.30;34.20;;;;;;5108249;28;20455;-68
2022/09/10 03:43:28;;;;;;;1.60;1.47;;;25.20;34.50;;;;;;5106971;28;20473;-68
2022/09/10 03:45:59;;;;;;;1.63;1.33;;;25.10;35.20;;;;;;5105318;28;20982;-69
2022/09/10 03:48:32;;;;;;;1.90;1.80;;;25.10;34.30;;;;;;5104321;28;20530;-70
2022/09/10 03:51:03;;;;;;;1.67;1.50;;;25.10;34.50;;;;;;5109183;28;20511;-69
2022/09/10 03:53:34;;;;;;;1.80;1.70;;;25.10;35.00;;;;;;5106139;28;20473;-69
2022/09/10 03:56:05;;;;;;;2.23;2.03;;;25.00;35.30;;;;;;5111076;28;20471;-69
2022/09/10 03:58:36;;;;;;;1.93;1.83;;;24.90;35.60;;;;;;5120173;28;20446;-69
2022/09/10 04:01:07;;;;;;;2.20;2.00;;;25.00;34.70;;;;;;5105545;28;20943;-69
2022/09/10 04:03:40;;;;;;;2.40;2.17;;;24.90;35.90;;;;;;5120878;28;20443;-69
2022/09/10 04:06:11;;;;;;;2.90;2.33;;;24.80;36.00;;;;;;5103860;28;20488;-68
2022/09/10 04:08:42;;;;;;;2.30;2.10;;;24.80;35.60;;;;;;5115966;28;20504;-68
2022/09/10 04:11:14;;;;;;;4.73;2.50;;;24.60;36.50;;;;;;5083468;28;20573;-69
2022/09/10 04:13:45;;;;;;;2.03;1.93;;;24.70;36.10;;;;;;5091454;28;20435;-70
2022/09/10 04:16:17;;;;;;;2.30;2.10;;;24.70;35.50;;;;;;5102790;28;20474;-67
2022/09/10 04:18:50;;;;;;;3.53;2.87;;;24.80;35.70;;;;;;5103953;28;20488;-67
2022/09/10 04:21:22;;;;;;;2.73;2.53;;;24.80;36.80;;;;;;5092784;28;20448;-67
2022/09/10 04:23:55;;;;;;;2.80;2.60;;;24.60;37.00;;;;;;5092595;28;20483;-66
2022/09/10 04:26:26;;;;;;;3.83;2.63;;;24.60;36.60;;;;;;5095452;28;20439;-67
2022/09/10 04:28:57;;;;;;;2.47;2.27;;;24.60;37.10;;;;;;5096029;28;20450;-67
2022/09/10 04:31:28;;;;;;;2.80;2.53;;;24.40;37.10;;;;;;5091776;28;20537;-66
2022/09/10 04:34:00;;;;;;;2.70;2.50;;;24.40;38.20;;;;;;5092320;28;20453;-67
2022/09/10 04:36:31;;;;;;;4.40;2.87;;;24.30;37.70;;;;;;5095262;28;20476;-67
2022/09/10 04:39:02;;;;;;;3.70;2.87;;;24.20;38.20;;;;;;5095844;28;20504;-67
2022/09/10 04:41:33;;;;;;;3.47;3.20;;;24.40;36.50;;;;;;5092274;28;20485;-67
2022/09/10 04:44:04;;;;;;;3.53;3.23;;;24.40;37.20;;;;;;5094486;28;20456;-67
2022/09/10 04:46:35;;;;;;;3.07;2.80;;;24.40;37.80;;;;;;5099930;28;20463;-67
2022/09/10 04:49:07;;;;;;;4.13;3.30;;;24.20;37.60;;;;;;5118941;27;20453;-67
2022/09/10 04:51:38;;;;;;;3.43;3.13;;;24.20;37.40;;;;;;5119792;28;20836;-67
2022/09/10 04:54:09;;;;;;;5.53;2.77;;;24.10;38.90;;;;;;5123800;27;20499;-67
2022/09/10 04:56:40;;;;;;;3.30;3.03;;;24.00;38.80;;;;;;5115201;28;20468;-69
2022/09/10 04:59:11;;;;;;;4.10;3.80;;;23.90;38.60;;;;;;5093954;28;20458;-68
2022/09/10 05:01:42;;;;;;;4.13;3.73;;;23.90;38.20;;;;;;5087044;28;21038;-66
2022/09/10 05:04:14;;;;;;;3.53;3.23;;;24.00;38.10;;;;;;5102482;28;20480;-66
2022/09/10 05:06:46;;;;;;;3.50;3.20;;;24.00;37.80;;;;;;5110437;28;20442;-66
2022/09/10 05:09:17;;;;;;;4.17;3.87;;;24.10;38.20;;;;;;5099293;28;20456;-68
2022/09/10 05:11:48;;;;;;;4.60;4.10;;;24.20;37.80;;;;;;5118538;28;20492;-66
2022/09/10 05:14:19;;;;;;;3.90;3.60;;;24.20;37.80;;;;;;5113864;28;20511;-67
2022/09/10 05:16:50;;;;;;;3.97;3.67;;;24.30;37.60;;;;;;5100943;28;20454;-67
2022/09/10 05:19:22;;;;;;;4.77;3.90;;;24.30;36.50;;;;;;5115545;28;20456;-67
2022/09/10 05:21:53;;;;;;;4.13;3.83;;;24.40;36.80;;;;;;5094615;28;20459;-66
2022/09/10 05:24:24;;;;;;;6.10;4.40;;;24.40;36.50;;;;;;5099367;28;20455;-68
2022/09/10 05:26:55;;;;;;;5.07;4.57;;;24.60;36.00;;;;;;5101699;28;20480;-66
2022/09/10 05:29:26;;;;;;;5.30;4.80;;;24.50;35.80;;;;;;5097119;28;20504;-67
2022/09/10 05:31:57;;;;;;;5.10;4.60;;;24.40;37.10;;;;;;5083117;28;22226;-66
2022/09/10 05:34:29;;;;;;;5.27;4.83;;;24.30;36.90;;;;;;5110925;28;20449;-67
2022/09/10 05:37:00;;;;;;;5.90;5.40;;;24.30;36.40;;;;;;5108466;28;20463;-67
2022/09/10 05:39:31;;;;;;;4.90;4.60;;;24.30;36.30;;;;;;5092713;28;20578;-66
2022/09/10 05:42:02;;;;;;;6.97;6.33;;;24.30;36.90;;;;;;5105895;28;20482;-66
2022/09/10 05:44:33;;;;;;;6.83;6.00;;;24.30;36.30;;;;;;5106775;28;20622;-66
2022/09/10 05:47:04;;;;;;;6.23;5.73;;;24.30;36.60;;;;;;5098547;28;20484;-68
2022/09/10 05:49:36;;;;;;;6.13;5.53;;;24.20;37.10;;;;;;5106059;28;20931;-70
2022/09/10 05:52:08;;;;;;;6.77;6.07;;;24.20;37.50;;;;;;5094922;28;20482;-67
2022/09/10 05:54:40;;;;;;;9.93;7.30;;;24.20;37.50;;;;;;5100571;28;20500;-67
2022/09/10 05:57:10;;;;;;;7.23;6.57;;;24.30;37.30;;;;;;5092017;28;20616;-68
2022/09/10 05:59:41;;;;;;;7.03;6.33;;;24.20;37.90;;;;;;5097556;28;20519;-68
2022/09/10 06:02:17;;;;;;;7.63;6.93;;;24.10;37.90;;;;;;5102363;28;20466;-68
2022/09/10 06:04:54;;;;;;;8.33;7.53;;;24.20;37.50;;;;;;5105580;28;20463;-68
2022/09/10 06:07:25;;;;;;;8.80;8.00;;;24.20;37.30;;;;;;5102957;28;20443;-68
2022/09/10 06:09:56;;;;;;;8.23;7.43;;;24.20;37.70;;;;;;5102465;28;20914;-68
2022/09/10 06:12:27;;;;;;;9.40;8.50;;;24.20;37.90;;;;;;5107488;28;20490;-67
2022/09/10 06:14:58;;;;;;;9.97;9.00;;;24.20;38.10;;;;;;5106866;28;20459;-67
2022/09/10 06:17:28;;;;;;;10.27;9.30;;;24.20;37.80;;;;;;5099355;28;20474;-67
2022/09/10 06:20:01;;;;;;;9.47;8.57;;;24.30;38.00;;;;;;5101318;28;20476;-67
2022/09/10 06:22:31;;;;;;;9.10;8.30;;;24.30;38.20;;;;;;5101794;28;20982;-68
2022/09/10 06:25:02;;;;;;;9.33;8.53;;;24.20;38.60;;;;;;5106818;28;20450;-68
2022/09/10 06:27:33;;;;;;;8.50;7.70;;;24.00;38.80;;;;;;5102941;28;20458;-67
2022/09/10 06:30:04;;;;;;;9.40;8.50;;;24.00;38.40;;;;;;5104691;28;20457;-67
2022/09/10 06:32:38;;;;;;;9.07;8.37;;;23.90;38.50;;;;;;5100260;28;20494;-67
2022/09/10 06:35:11;;;;;;;10.03;9.17;;;24.00;38.10;;;;;;5103574;28;20451;-67
2022/09/10 06:37:41;;;;;;;8.73;8.03;;;24.10;37.70;;;;;;5101678;28;20480;-67
2022/09/10 06:40:14;;;;;;;9.90;8.90;;;24.20;37.70;;;;;;5098467;28;20462;-67
2022/09/10 06:42:45;;;;;;;9.93;9.13;;;24.10;38.10;;;;;;5105548;28;20484;-67
2022/09/10 06:45:16;;;;;;;9.93;8.97;;;24.10;38.50;;;;;;5116971;28;20503;-67
2022/09/10 06:47:47;;;;;;;9.90;9.00;;;24.10;38.00;;;;;;5095801;28;20450;-67
2022/09/10 06:50:40;;;;;;;10.60;9.60;;;24.10;37.70;;;;;;5119471;28;20477;-67
2022/09/10 06:53:11;;;;;;;9.30;8.23;;;24.10;38.00;;;;;;5107396;28;20447;-67
2022/09/10 06:55:42;;;;;;;10.00;9.00;;;24.00;38.70;;;;;;5119340;28;20537;-67
2022/09/10 06:58:13;;;;;;;9.13;8.33;;;23.90;38.50;;;;;;5114058;28;20515;-67
2022/09/10 07:00:46;;;;;;;9.73;8.67;;;23.90;38.20;;;;;;5105240;28;20497;-67
2022/09/10 07:03:18;;;;;;;9.27;8.47;;;24.00;38.40;;;;;;5106240;28;20450;-67
2022/09/10 07:05:51;;;;;;;9.47;8.67;;;23.90;38.90;;;;;;5109553;28;20527;-68
2022/09/10 07:08:21;;;;;;;9.13;8.07;;;23.80;38.10;;;;;;5109348;28;20491;-68
2022/09/10 07:10:52;;;;;;;10.10;9.10;;;23.80;38.70;;;;;;5105884;28;20465;-67
2022/09/10 07:13:24;;;;;;;9.77;8.90;;;23.80;38.80;;;;;;5111269;28;20465;-67
2022/09/10 07:15:55;;;;;;;9.17;8.10;;;23.80;39.20;;;;;;5104570;28;20463;-67
2022/09/10 07:18:27;;;;;;;9.50;8.60;;;23.90;38.80;;;;;;5109624;28;20475;-68
2022/09/10 07:21:08;;;;;;;8.70;7.90;;;23.80;39.20;;;;;;5110832;28;20450;-68
2022/09/10 07:23:40;;;;;;;10.50;9.50;;;23.80;38.50;;;;;;5105690;28;20519;-68
2022/09/10 07:26:13;;;;;;;9.20;8.37;;;23.80;38.80;;;;;;5118586;28;20447;-68
2022/09/10 07:28:44;;;;;;;10.63;9.53;;;23.70;39.30;;;;;;5105931;28;20454;-68
2022/09/10 07:31:18;;;;;;;10.93;9.73;;;23.80;38.50;;;;;;5115940;28;20567;-68
2022/09/10 07:33:49;;;;;;;9.57;8.67;;;23.80;38.60;;;;;;5104479;28;20470;-68
2022/09/10 07:36:22;;;;;;;10.17;9.10;;;23.80;38.70;;;;;;5111635;28;20454;-67
2022/09/10 07:38:54;;;;;;;9.23;8.43;;;23.70;39.10;;;;;;5119139;28;20736;-67
2022/09/10 07:41:28;;;;;;;9.70;8.83;;;23.60;39.70;;;;;;5105080;28;20454;-67
2022/09/10 07:43:59;;;;;;;10.43;9.43;;;23.60;39.30;;;;;;5114221;28;20572;-67
2022/09/10 07:46:30;;;;;;;10.10;9.17;;;23.50;40.10;;;;;;5104216;28;20472;-67
2022/09/10 07:49:01;;;;;;;11.00;9.13;;;23.40;40.30;;;;;;5096531;28;20454;-67
2022/09/10 07:51:35;;;;;;;9.47;8.53;;;23.20;40.40;;;;;;5112412;28;20465;-67
2022/09/10 07:54:07;;;;;;;10.40;9.40;;;23.10;40.30;;;;;;5111561;28;20453;-67
2022/09/10 07:56:37;;;;;;;10.67;9.70;;;23.30;40.20;;;;;;5109097;28;20458;-67
2022/09/10 07:59:08;;;;;;;9.97;8.87;;;23.50;39.80;;;;;;5098991;28;20510;-67
2022/09/10 08:01:39;;;;;;;10.13;9.13;;;23.50;39.50;;;;;;5113735;28;20463;-67
2022/09/10 08:04:10;;;;;;;10.47;9.37;;;23.40;40.00;;;;;;5114458;28;20469;-67
2022/09/10 08:06:42;;;;;;;9.40;8.50;;;23.50;39.40;;;;;;5115647;28;20865;-67
2022/09/10 08:09:14;;;;;;;9.37;8.47;;;23.50;39.50;;;;;;5108824;28;20532;-67
2022/09/10 08:11:44;;;;;;;12.03;9.20;;;23.50;39.00;;;;;;5108696;28;20617;-67
2022/09/10 08:14:15;;;;;;;10.60;9.13;;;23.60;38.80;;;;;;5119611;28;20469;-67
2022/09/10 08:16:46;;;;;;;9.40;8.50;;;23.50;38.90;;;;;;5110570;28;20503;-67
2022/09/10 08:19:17;;;;;;;10.70;9.67;;;23.50;39.30;;;;;;5104434;28;20491;-68
2022/09/10 08:21:49;;;;;;;9.60;8.67;;;23.50;39.50;;;;;;5110459;28;20469;-68
2022/09/10 08:24:20;;;;;;;9.53;8.50;;;23.40;39.70;;;;;;5113875;28;20939;-67
2022/09/10 08:26:51;;;;;;;11.00;10.00;;;23.40;39.50;;;;;;5113565;28;20525;-68
2022/09/10 08:29:22;;;;;;;10.10;9.13;;;23.50;38.70;;;;;;5112403;28;20457;-68
2022/09/10 08:31:53;;;;;;;8.90;8.10;;;23.50;38.90;;;;;;5112448;27;20541;-67
2022/09/10 08:34:25;;;;;;;9.23;8.33;;;23.50;38.70;;;;;;5104199;28;20458;-68
2022/09/10 08:36:58;;;;;;;9.87;8.87;;;23.60;39.00;;;;;;5100333;28;20520;-67
2022/09/10 08:39:29;;;;;;;12.23;9.50;;;23.50;39.20;;;;;;5104535;28;20455;-67
2022/09/10 08:42:04;;;;;;;10.10;9.07;;;23.50;38.80;;;;;;5103437;28;20528;-67
2022/09/10 08:44:41;;;;;;;9.00;8.20;;;23.50;39.40;;;;;;5104280;28;20856;-67
2022/09/10 08:47:23;;;;;;;11.30;9.63;;;23.40;39.70;;;;;;5105539;28;20524;-68
2022/09/10 08:49:57;;;;;;;8.87;8.07;;;23.40;39.30;;;;;;5116034;28;20454;-67
2022/09/10 08:52:34;;;;;;;10.07;9.07;;;23.40;40.80;;;;;;5104595;28;20474;-67
2022/09/10 08:55:15;;;;;;;11.10;10.00;;;23.30;39.70;;;;;;5104422;28;20535;-67
2022/09/10 08:57:51;;;;;;;10.60;8.53;;;23.30;40.10;;;;;;5104207;28;20910;-67
2022/09/10 09:00:23;;;;;;;13.13;8.60;;;23.20;40.20;;;;;;5110212;28;20510;-67
2022/09/10 09:03:01;;;;;;;9.57;8.57;;;23.20;39.60;;;;;;5102583;28;20462;-68
2022/09/10 09:05:44;;;;;;;10.00;9.00;;;23.20;40.60;;;;;;5113431;28;20556;-68
2022/09/10 09:08:18;;;;;;;12.77;8.37;;;23.20;40.80;;;;;;5106230;28;20483;-67
2022/09/10 09:10:53;;;;;;;9.23;8.13;;;23.20;40.30;;;;;;5098167;28;20461;-68
2022/09/10 09:13:55;;;;;;;9.97;8.37;;;23.10;40.80;;;;;;5112024;28;21044;-67
2022/09/10 09:16:52;;;;;;;10.97;9.30;;;23.00;41.60;;;;;;5045883;28;20455;-67
2022/09/10 09:19:32;;;;;;;10.80;8.73;;;23.00;41.20;;;;;;5059416;28;20468;-67
2022/09/10 09:22:12;;;;;;;10.60;9.33;;;22.90;41.40;;;;;;5058769;28;20456;-68
2022/09/10 09:24:54;;;;;;;10.33;9.23;;;22.90;40.80;;;;;;5060884;28;20460;-67
2022/09/10 09:27:30;;;;;;;10.50;8.87;;;23.00;41.10;;;;;;5063960;28;20646;-67
2022/09/10 09:30:04;;;;;;;9.80;8.73;;;23.10;40.50;;;;;;5062747;28;20460;-68
2022/09/10 09:32:37;;;;;;;10.60;8.50;;;23.00;41.10;;;;;;5071366;28;20565;-67
2022/09/10 09:35:23;;;;;;;9.70;8.70;;;23.10;41.00;;;;;;5064045;28;20622;-68
2022/09/10 09:38:04;;;;;;;12.40;9.93;;;23.10;40.80;;;;;;5059752;28;20490;-67
2022/09/10 09:40:45;;;;;;;10.23;9.30;;;23.10;40.00;;;;;;5065384;28;20878;-67
2022/09/10 09:43:25;;;;;;;9.40;8.53;;;23.20;40.40;;;;;;5066561;28;20459;-67
2022/09/10 09:45:56;;;;;;;9.83;8.83;;;23.30;40.10;;;;;;5058798;28;20471;-67
2022/09/10 09:48:30;;;;;;;9.90;8.90;;;23.40;40.00;;;;;;5065062;28;20614;-67
2022/09/10 09:51:01;;;;;;;9.80;8.80;;;23.40;40.40;;;;;;5075765;28;20459;-68
2022/09/10 09:53:32;;;;;;;10.20;9.20;;;23.40;39.60;;;;;;5107407;28;20482;-68
2022/09/10 09:56:07;;;;;;;9.43;8.53;;;23.40;40.30;;;;;;5098671;28;20462;-67
2022/09/10 09:58:39;;;;;;;9.90;8.77;;;23.30;39.90;;;;;;5098385;28;20461;-67
2022/09/10 10:01:15;;;;;;;10.83;8.57;;;23.30;40.20;;;;;;5102185;28;20475;-67
2022/09/10 10:03:51;;;;;;;10.60;9.50;;;23.30;40.50;;;;;;5110926;28;20566;-67
2022/09/10 10:06:24;;;;;;;11.57;8.80;;;23.20;40.60;;;;;;5116029;28;20498;-67
2022/09/10 10:08:59;;;;;;;11.40;10.03;;;23.10;41.20;;;;;;5103346;28;20850;-67
2022/09/10 10:11:48;;;;;;;11.30;10.20;;;22.90;41.30;;;;;;5104793;28;20466;-67
2022/09/10 10:14:40;;;;;;;10.37;9.47;;;23.00;40.70;;;;;;5109369;28;20481;-67
2022/09/10 10:17:38;;;;;;;11.90;10.70;;;23.00;41.50;;;;;;5109275;28;20526;-67
2022/09/10 10:20:11;;;;;;;11.43;9.70;;;23.00;40.60;;;;;;5060255;28;20460;-67
2022/09/10 10:22:44;;;;;;;11.73;10.53;;;23.10;41.00;;;;;;5059710;28;20661;-67
2022/09/10 10:25:39;;;;;;;11.80;10.60;;;23.00;41.30;;;;;;5063080;28;20452;-67
2022/09/10 10:28:21;;;;;;;11.63;10.50;;;22.90;41.30;;;;;;5058515;28;20545;-67
2022/09/10 10:30:55;;;;;;;12.17;10.90;;;22.90;41.50;;;;;;5060838;28;20464;-67
2022/09/10 10:33:29;;;;;;;12.73;11.43;;;23.00;41.10;;;;;;5049396;28;20567;-67
2022/09/10 10:36:11;;;;;;;11.57;10.40;;;23.10;41.00;;;;;;5064924;28;20448;-68
2022/09/10 10:38:46;;;;;;;12.80;11.50;;;23.10;41.20;;;;;;5060244;28;20508;-67
2022/09/10 10:41:48;;;;;;;13.90;12.20;;;23.10;41.00;;;;;;5065247;28;20530;-67
2022/09/10 10:44:35;;;;;;;13.67;12.47;;;23.10;41.30;;;;;;5069071;28;20455;-67
2022/09/10 10:47:23;;;;;;;13.53;12.13;;;23.20;41.40;;;;;;5068067;28;20468;-67
2022/09/10 10:50:03;;;;;;;15.83;12.50;;;23.10;41.20;;;;;;5063676;28;20468;-67
2022/09/10 10:52:43;;;;;;;13.77;12.47;;;23.40;40.80;;;;;;5062355;28;20975;-67
2022/09/10 10:55:22;;;;;;;15.57;13.97;;;23.40;41.20;;;;;;5072506;28;20499;-67
2022/09/10 10:58:20;;;;;;;14.93;13.33;;;23.40;41.20;;;;;;5113276;28;20457;-66
2022/09/10 11:00:58;;;;;;;15.37;13.77;;;23.40;41.20;;;;;;5088169;28;20462;-66
2022/09/10 11:03:35;;;;;;;14.63;13.23;;;23.50;40.90;;;;;;5104448;28;20523;-67
2022/09/10 11:06:12;;;;;;;15.27;13.67;;;23.50;41.20;;;;;;5116273;28;20536;-67
2022/09/10 11:08:46;;;;;;;17.73;14.00;;;23.40;41.30;;;;;;5106293;28;20459;-66
2022/09/10 11:11:22;;;;;;;17.80;15.03;;;23.50;40.80;;;;;;5118349;28;20458;-67
2022/09/10 11:13:56;;;;;;;17.33;15.30;;;23.50;41.50;;;;;;5114093;28;20534;-67
2022/09/10 11:16:34;;;;;;;15.43;13.50;;;23.40;41.10;;;;;;5117175;28;20510;-67
2022/09/10 11:19:14;;;;;;;15.33;13.83;;;23.40;42.10;;;;;;5103687;28;20553;-67
2022/09/10 11:21:52;;;;;;;16.10;14.53;;;23.30;42.00;;;;;;5107209;28;20518;-68
2022/09/10 11:24:29;;;;;;;16.20;14.13;;;23.30;41.90;;;;;;5111947;28;20461;-66
2022/09/10 11:27:09;;;;;;;16.43;14.33;;;23.20;42.00;;;;;;5109425;28;20519;-67
2022/09/10 11:29:44;;;;;;;17.07;15.30;;;23.40;41.30;;;;;;5111152;28;20457;-67
2022/09/10 11:32:30;;;;;;;16.27;14.17;;;23.40;42.20;;;;;;5106824;28;20506;-66
2022/09/10 11:35:11;;;;;;;19.67;15.93;;;23.50;41.10;;;;;;5111223;28;20497;-67
2022/09/10 11:38:08;;;;;;;16.93;15.10;;;23.50;41.70;;;;;;5105113;28;20505;-67
2022/09/10 11:40:45;;;;;;;19.23;16.30;;;23.40;41.90;;;;;;5104492;28;20981;-67
2022/09/10 11:43:26;;;;;;;20.07;15.80;;;23.40;41.70;;;;;;5104103;28;20512;-66
2022/09/10 11:46:00;;;;;;;17.17;14.97;;;23.50;41.40;;;;;;5107088;28;20527;-67
2022/09/10 11:48:39;;;;;;;16.87;14.40;;;23.40;42.10;;;;;;5120616;28;20480;-67
2022/09/10 11:51:16;;;;;;;17.87;15.97;;;23.30;41.60;;;;;;5125217;28;20530;-67
2022/09/10 11:53:47;;;;;;;17.47;14.37;;;23.40;41.40;;;;;;5120377;27;20486;-67
2022/09/10 11:56:35;;;;;;;16.30;14.43;;;23.40;41.60;;;;;;5107425;28;20476;-67
2022/09/10 11:59:27;;;;;;;16.50;14.83;;;23.30;41.90;;;;;;5097448;28;20455;-67
2022/09/10 12:02:24;;;;;;;16.50;14.30;;;23.30;41.80;;;;;;5102844;28;20564;-67
2022/09/10 12:05:04;;;;;;;16.87;15.10;;;23.30;41.80;;;;;;5104997;28;20486;-66
2022/09/10 12:07:44;;;;;;;15.97;14.27;;;23.10;42.30;;;;;;5114003;28;20506;-67
2022/09/10 12:10:23;;;;;;;17.00;15.20;;;23.00;42.90;;;;;;5106553;28;20511;-67
2022/09/10 12:12:54;;;;;;;14.90;13.30;;;23.10;42.60;;;;;;5106571;28;20510;-67
2022/09/10 12:15:26;;;;;;;16.90;15.20;;;23.10;41.70;;;;;;5116545;28;20538;-67
2022/09/10 12:18:00;;;;;;;17.17;15.47;;;23.10;41.90;;;;;;5104362;28;20490;-66
2022/09/10 12:20:36;;;;;;;16.77;14.97;;;23.20;41.40;;;;;;5103686;28;20470;-67
2022/09/10 12:23:07;;;;;;;17.77;15.63;;;23.30;41.90;;;;;;5106630;28;20458;-67
2022/09/10 12:25:39;;;;;;;18.00;16.20;;;23.20;41.90;;;;;;5108137;28;20451;-67
2022/09/10 12:28:49;;;;;;;18.07;16.17;;;23.20;41.80;;;;;;5103676;28;20884;-66
2022/09/10 12:31:21;;;;;;;15.83;14.23;;;23.20;41.60;;;;;;5093384;28;20459;-66
2022/09/10 12:34:07;;;;;;;16.80;15.10;;;23.30;41.30;;;;;;5104264;28;20997;-66
2022/09/10 12:37:18;;;;;;;17.87;16.03;;;23.30;41.60;;;;;;5112597;28;20535;-66
2022/09/10 12:40:10;;;;;;;18.03;16.17;;;23.20;42.00;;;;;;5097870;28;20816;-66
2022/09/10 12:42:44;;;;;;;17.43;15.60;;;23.30;41.60;;;;;;5104581;28;20466;-66
2022/09/10 12:45:34;;;;;;;17.40;15.67;;;23.20;41.70;;;;;;5104189;28;20539;-66
2022/09/10 12:48:13;;;;;;;18.50;16.50;;;23.20;41.50;;;;;;5103454;28;20535;-66
2022/09/10 12:50:52;;;;;;;18.07;15.83;;;23.20;41.60;;;;;;5104413;28;20463;-66
2022/09/10 12:53:56;;;;;;;19.50;16.07;;;23.20;42.00;;;;;;5107057;28;20465;-66
2022/09/10 12:56:49;;;;;;;18.33;16.40;;;23.10;42.20;;;;;;5106842;28;20568;-66
2022/09/10 12:59:46;;;;;;;18.93;16.97;;;23.10;42.00;;;;;;5097386;28;20450;-66
2022/09/10 13:02:29;;;;;;;17.70;15.90;;;23.10;42.30;;;;;;5100513;28;20455;-67
2022/09/10 13:05:05;;;;;;;19.37;15.77;;;23.10;42.20;;;;;;5107042;28;20930;-66
2022/09/10 13:07:39;;;;;;;18.77;16.07;;;23.20;41.80;;;;;;5103480;28;20520;-67
2022/09/10 13:10:20;;;;;;;21.00;16.17;;;23.20;41.90;;;;;;5104583;28;20450;-67
2022/09/10 13:12:55;;;;;;;17.90;16.10;;;23.10;42.30;;;;;;5109556;28;20463;-67
2022/09/10 13:15:30;;;;;;;17.90;16.00;;;23.10;42.30;;;;;;5114876;28;20572;-67
2022/09/10 13:18:29;;;;;;;17.53;15.27;;;23.00;41.70;;;;;;5105174;28;20489;-67
2022/09/10 13:21:07;;;;;;;17.87;15.97;;;23.00;42.00;;;;;;5111336;28;20550;-66
2022/09/10 13:23:50;;;;;;;17.03;15.30;;;23.00;42.30;;;;;;5112366;28;20450;-66